Time;durP1;ratioP1;P1;durP2;ratioP2;P2;SDS_P1;SDS_P2;PMS_P1;PMS_P2;Temp;Humidity;BMP_temperature;BMP_pressure;BME280_temperature;BME280_humidity;BME280_pressure;Samples;Min_cycle;Max_cycle;Signal;HPM_P1;HPM_P2
2023/05/22 00:01:48;;;;;;;3.75;2.10;;;;;;;14.83;100.00;95863.25;4975452;28;20226;-72
2023/05/22 00:04:19;;;;;;;5.15;2.78;;;;;;;14.69;100.00;95861.69;4975740;28;20199;-72
2023/05/22 00:06:46;;;;;;;4.25;2.40;;;;;;;14.65;100.00;95857.84;4975996;28;20212;-70
2023/05/22 00:09:13;;;;;;;6.65;2.53;;;;;;;14.55;100.00;95855.84;4974790;28;20203;-71
2023/05/22 00:11:41;;;;;;;6.25;2.78;;;;;;;14.40;100.00;95855.31;4975757;28;20220;-70
2023/05/22 00:14:07;;;;;;;5.60;3.22;;;;;;;14.35;100.00;95855.13;4975201;28;20207;-71
2023/05/22 00:16:33;;;;;;;6.65;3.45;;;;;;;14.56;100.00;95854.81;4975428;28;20211;-69
2023/05/22 00:19:00;;;;;;;5.15;2.75;;;;;;;14.64;100.00;95861.50;4975011;28;20203;-72
2023/05/22 00:21:27;;;;;;;6.05;3.22;;;;;;;14.67;100.00;95854.97;4975321;28;20210;-72
2023/05/22 00:23:54;;;;;;;3.75;2.15;;;;;;;14.62;100.00;95861.94;4975587;28;20266;-71
2023/05/22 00:26:21;;;;;;;8.40;2.67;;;;;;;14.66;100.00;95854.16;4975230;28;20199;-70
2023/05/22 00:28:48;;;;;;;3.50;2.10;;;;;;;14.56;100.00;95857.47;4974951;28;20231;-70
2023/05/22 00:31:15;;;;;;;4.95;2.63;;;;;;;14.60;100.00;95850.72;4974770;28;20214;-70
2023/05/22 00:33:41;;;;;;;5.47;2.67;;;;;;;14.63;100.00;95851.91;4975180;28;20227;-69
2023/05/22 00:36:08;;;;;;;5.25;2.72;;;;;;;14.55;100.00;95850.53;4974818;28;20207;-71
2023/05/22 00:38:36;;;;;;;10.57;3.22;;;;;;;14.49;100.00;95854.84;4975155;28;20226;-72
2023/05/22 00:41:05;;;;;;;3.42;2.17;;;;;;;14.55;100.00;95855.84;4974389;28;21286;-70
2023/05/22 00:43:31;;;;;;;4.03;2.38;;;;;;;14.43;100.00;95841.63;4975378;28;20257;-72
2023/05/22 00:45:59;;;;;;;4.40;2.70;;;;;;;14.47;100.00;95856.06;4975237;28;20207;-70
2023/05/22 00:48:26;;;;;;;4.30;2.25;;;;;;;14.46;100.00;95847.31;4974653;28;20231;-69
2023/05/22 00:50:54;;;;;;;6.43;2.88;;;;;;;14.55;100.00;95848.72;4974401;28;20203;-69
2023/05/22 00:53:22;;;;;;;3.85;2.15;;;;;;;14.34;100.00;95850.81;4974667;28;20227;-70
2023/05/22 00:55:49;;;;;;;5.45;2.88;;;;;;;14.30;100.00;95846.97;4974778;28;20651;-71
2023/05/22 00:58:18;;;;;;;10.20;3.55;;;;;;;14.37;100.00;95853.06;4974285;28;20226;-72
2023/05/22 01:00:45;;;;;;;10.63;2.80;;;;;;;14.40;100.00;95850.00;4973991;28;20694;-69
2023/05/22 01:03:14;;;;;;;3.72;2.25;;;;;;;14.40;100.00;95848.16;4975301;28;20203;-72
2023/05/22 01:05:41;;;;;;;5.88;2.30;;;;;;;14.48;100.00;95855.06;4975065;28;20214;-69
2023/05/22 01:08:09;;;;;;;1.52;1.42;;;;;;;14.55;100.00;95850.53;4974109;28;20223;-69
2023/05/22 01:10:37;;;;;;;3.22;2.40;;;;;;;14.44;100.00;95853.84;4974989;28;20199;-72
2023/05/22 01:13:12;;;;;;;5.53;2.30;;;;;;;14.41;100.00;95849.78;4974532;28;20223;-70
2023/05/22 01:15:47;;;;;;;7.28;3.53;;;;;;;14.19;100.00;95853.72;4974909;28;20206;-71
2023/05/22 01:18:20;;;;;;;5.07;3.20;;;;;;;14.20;100.00;95857.19;4973855;28;20226;-71
2023/05/22 01:20:52;;;;;;;4.05;2.78;;;;;;;14.31;100.00;95854.72;4974670;28;20433;-69
2023/05/22 01:23:45;;;;;;;10.13;3.08;;;;;;;14.37;100.00;95850.41;4978151;28;20214;-71
2023/05/22 01:26:43;;;;;;;5.53;3.13;;;;;;;14.41;100.00;95854.25;4973942;28;20225;-70
2023/05/22 01:29:30;;;;;;;4.72;2.75;;;;;;;14.35;100.00;95853.25;4968414;28;20199;-69
2023/05/22 01:32:01;;;;;;;3.85;2.60;;;;;;;14.26;100.00;95861.66;4974296;28;20211;-69
2023/05/22 01:34:30;;;;;;;4.75;2.60;;;;;;;14.28;100.00;95864.91;4974756;28;20207;-69
2023/05/22 01:36:57;;;;;;;3.97;2.25;;;;;;;14.18;100.00;95861.91;4975084;28;20230;-72
2023/05/22 01:39:25;;;;;;;3.78;2.50;;;;;;;14.19;100.00;95863.50;4973890;28;20211;-73
2023/05/22 01:41:52;;;;;;;3.72;2.38;;;;;;;13.89;100.00;95859.66;4974585;28;20211;-71
2023/05/22 01:44:18;;;;;;;4.60;2.10;;;;;;;13.73;100.00;95851.34;4975064;28;20199;-69
2023/05/22 01:46:45;;;;;;;5.60;2.35;;;;;;;13.74;100.00;95860.91;4974230;28;20206;-73
2023/05/22 01:49:12;;;;;;;5.97;2.20;;;;;;;13.71;100.00;95863.94;4975749;28;20710;-70
2023/05/22 01:51:47;;;;;;;3.72;2.42;;;;;;;13.67;100.00;95871.50;4978886;28;20207;-69
2023/05/22 01:54:19;;;;;;;5.78;2.17;;;;;;;13.76;100.00;95867.63;4977504;28;20244;-72
2023/05/22 01:56:53;;;;;;;5.18;2.30;;;;;;;13.71;100.00;95875.38;4978062;28;20205;-71
2023/05/22 01:59:29;;;;;;;2.42;2.05;;;;;;;13.77;100.00;95876.38;4976839;28;20203;-73
2023/05/22 02:01:58;;;;;;;3.33;1.83;;;;;;;13.83;100.00;95878.22;4980492;28;20218;-71
2023/05/22 02:04:28;;;;;;;3.58;1.75;;;;;;;13.78;100.00;95872.72;4977155;28;20199;-69
2023/05/22 02:06:57;;;;;;;5.53;2.35;;;;;;;13.47;100.00;95881.28;4978197;28;20610;-73
2023/05/22 02:09:27;;;;;;;6.75;3.78;;;;;;;13.58;100.00;95880.69;4974354;28;20245;-69
2023/05/22 02:11:54;;;;;;;3.63;2.00;;;;;;;13.57;100.00;95886.97;4977394;28;20214;-70
2023/05/22 02:14:21;;;;;;;5.70;2.70;;;;;;;13.62;100.00;95883.72;4977160;28;20238;-69
2023/05/22 02:16:47;;;;;;;2.97;1.73;;;;;;;13.58;100.00;95885.97;4977689;28;20204;-72
2023/05/22 02:19:14;;;;;;;4.50;2.53;;;;;;;13.52;100.00;95888.63;4975985;28;20203;-68
2023/05/22 02:21:42;;;;;;;3.85;1.92;;;;;;;13.67;100.00;95890.03;4977442;28;20204;-69
2023/05/22 02:24:09;;;;;;;4.38;2.25;;;;;;;13.38;100.00;95889.63;4976867;28;20593;-70
2023/05/22 02:26:36;;;;;;;5.28;2.10;;;;;;;13.31;100.00;95888.00;4977071;28;20199;-70
2023/05/22 02:29:03;;;;;;;10.15;2.22;;;;;;;13.39;100.00;95884.13;4976107;28;20218;-71
2023/05/22 02:31:29;;;;;;;4.82;2.70;;;;;;;13.46;100.00;95881.47;4977684;28;20199;-70
2023/05/22 02:33:56;;;;;;;5.25;2.25;;;;;;;13.42;100.00;95889.00;4976697;28;20223;-72
2023/05/22 02:36:22;;;;;;;3.45;1.70;;;;;;;13.44;100.00;95871.09;4976972;28;20875;-68
2023/05/22 02:38:50;;;;;;;3.13;1.63;;;;;;;13.54;100.00;95876.81;4976209;28;21407;-71
2023/05/22 02:41:18;;;;;;;3.22;1.77;;;;;;;13.32;100.00;95876.38;4976867;28;20207;-70
2023/05/22 02:43:44;;;;;;;4.13;2.47;;;;;;;13.18;100.00;95878.19;4976854;28;20203;-73
2023/05/22 02:46:11;;;;;;;3.13;1.92;;;;;;;13.20;100.00;95875.34;4974988;28;20208;-72
2023/05/22 02:48:37;;;;;;;2.63;1.80;;;;;;;13.16;100.00;95871.47;4976670;28;20219;-71
2023/05/22 02:51:04;;;;;;;3.80;2.58;;;;;;;13.13;100.00;95877.19;4976599;28;20199;-73
2023/05/22 02:53:32;;;;;;;5.22;2.30;;;;;;;13.12;100.00;95872.91;4977157;28;21109;-69
2023/05/22 02:56:00;;;;;;;4.43;2.05;;;;;;;13.22;100.00;95875.97;4976901;28;21249;-69
2023/05/22 02:58:26;;;;;;;2.30;1.85;;;;;;;13.03;100.00;95874.09;4975762;28;20745;-69
2023/05/22 03:00:53;;;;;;;3.13;1.92;;;;;;;13.00;100.00;95882.44;4976204;28;20675;-72
2023/05/22 03:03:19;;;;;;;1.90;1.42;;;;;;;13.05;100.00;95880.00;4977614;28;20207;-70
2023/05/22 03:05:46;;;;;;;2.37;1.43;;;;;;;13.08;100.00;95884.91;4976287;28;20207;-71
2023/05/22 03:08:14;;;;;;;2.87;1.90;;;;;;;13.02;100.00;95875.09;4975364;28;20223;-71
2023/05/22 03:10:40;;;;;;;4.97;2.33;;;;;;;13.10;100.00;95881.03;4976858;28;20568;-72
2023/05/22 03:13:08;;;;;;;3.80;2.08;;;;;;;13.09;100.00;95874.09;4977146;28;20227;-72
2023/05/22 03:15:34;;;;;;;3.25;2.25;;;;;;;13.09;100.00;95886.53;4976426;28;20203;-71
2023/05/22 03:18:01;;;;;;;2.72;1.77;;;;;;;13.05;100.00;95886.09;4975932;28;20274;-71
2023/05/22 03:20:28;;;;;;;2.97;1.77;;;;;;;13.08;100.00;95883.06;4976611;28;20207;-70
2023/05/22 03:22:55;;;;;;;4.95;2.33;;;;;;;12.98;100.00;95892.41;4979018;28;20203;-70
2023/05/22 03:25:21;;;;;;;2.13;1.60;;;;;;;13.00;100.00;95893.81;4976260;28;20211;-72
2023/05/22 03:27:48;;;;;;;3.25;2.05;;;;;;;13.03;100.00;95900.53;4975695;28;20297;-68
2023/05/22 03:30:16;;;;;;;6.53;2.17;;;;;;;12.82;100.00;95896.19;4975884;28;20564;-70
2023/05/22 03:32:42;;;;;;;4.82;2.33;;;;;;;12.80;100.00;95913.25;4976057;28;20214;-70
2023/05/22 03:35:09;;;;;;;4.10;2.17;;;;;;;12.98;100.00;95906.44;4976533;28;20203;-71
2023/05/22 03:37:36;;;;;;;9.60;3.58;;;;;;;13.01;100.00;95905.25;4974998;28;20227;-70
2023/05/22 03:40:04;;;;;;;5.22;2.25;;;;;;;13.03;100.00;95905.84;4976369;28;20420;-73
2023/05/22 03:42:31;;;;;;;5.70;2.90;;;;;;;12.98;100.00;95908.25;4976198;28;20303;-71
2023/05/22 03:44:57;;;;;;;3.15;2.28;;;;;;;13.01;100.00;95902.59;4977778;28;21459;-72
2023/05/22 03:47:25;;;;;;;6.57;3.03;;;;;;;13.05;100.00;95907.28;4974962;28;20703;-73
2023/05/22 03:49:51;;;;;;;4.53;2.38;;;;;;;13.07;100.00;95907.06;4976107;28;21017;-69
2023/05/22 03:52:18;;;;;;;5.38;2.55;;;;;;;13.22;100.00;95908.53;4976032;28;20207;-73
2023/05/22 03:54:44;;;;;;;4.90;2.28;;;;;;;13.18;100.00;95902.00;4975224;28;20223;-72
2023/05/22 03:57:11;;;;;;;1.90;1.67;;;;;;;13.04;100.00;95905.63;4975451;28;21370;-69
2023/05/22 03:59:37;;;;;;;2.80;1.85;;;;;;;13.07;100.00;95904.41;4975774;28;20199;-72
2023/05/22 04:02:04;;;;;;;4.57;2.70;;;;;;;13.07;100.00;95913.19;4975130;28;20220;-68
2023/05/22 04:04:32;;;;;;;5.75;2.60;;;;;;;13.24;100.00;95905.66;4975930;28;20200;-72
2023/05/22 04:07:01;;;;;;;3.30;2.17;;;;;;;13.19;100.00;95902.84;4978301;28;20227;-73
2023/05/22 04:09:31;;;;;;;4.82;2.17;;;;;;;13.32;100.00;95902.84;4975015;28;20199;-70
2023/05/22 04:11:57;;;;;;;1.77;1.42;;;;;;;13.19;100.00;95913.41;4974777;28;20250;-71
2023/05/22 04:14:24;;;;;;;4.10;1.95;;;;;;;13.18;100.00;95909.94;4976283;28;20234;-72
2023/05/22 04:16:51;;;;;;;5.93;2.05;;;;;;;13.30;100.00;95910.16;4975831;28;20579;-72
2023/05/22 04:19:17;;;;;;;6.45;2.85;;;;;;;13.26;100.00;95909.75;4974330;28;20667;-69
2023/05/22 04:21:46;;;;;;;3.28;1.92;;;;;;;13.36;100.00;95914.66;4975149;28;20207;-72
2023/05/22 04:24:13;;;;;;;6.95;1.80;;;;;;;13.35;100.00;95918.31;4976286;28;20218;-72
2023/05/22 04:26:39;;;;;;;5.90;2.70;;;;;;;13.47;100.00;95913.03;4975413;28;20203;-71
2023/05/22 04:29:09;;;;;;;4.10;2.08;;;;;;;13.64;100.00;95918.75;4974527;28;20207;-72
2023/05/22 04:31:35;;;;;;;5.72;2.20;;;;;;;13.64;100.00;95913.47;4975422;28;20199;-71
2023/05/22 04:34:02;;;;;;;3.67;2.50;;;;;;;13.69;100.00;95917.13;4975182;28;21048;-69
2023/05/22 04:36:29;;;;;;;4.88;2.63;;;;;;;13.68;100.00;95919.97;4975917;28;20203;-72
2023/05/22 04:38:59;;;;;;;4.95;2.60;;;;;;;13.80;100.00;95918.38;4974714;28;20227;-70
2023/05/22 04:41:26;;;;;;;5.88;2.92;;;;;;;13.81;100.00;95920.81;4974606;28;20249;-69
2023/05/22 04:43:52;;;;;;;6.53;2.53;;;;;;;13.89;100.00;95920.59;4974775;28;20256;-71
2023/05/22 04:46:19;;;;;;;3.25;2.17;;;;;;;13.93;100.00;95919.16;4975747;28;20291;-70
2023/05/22 04:48:46;;;;;;;5.57;2.15;;;;;;;13.96;100.00;95924.03;4974070;28;20620;-70
2023/05/22 04:51:13;;;;;;;4.57;3.28;;;;;;;14.04;100.00;95923.84;4974903;28;20231;-71
2023/05/22 04:53:39;;;;;;;10.20;2.50;;;;;;;14.11;100.00;95922.03;4976304;28;20219;-70
2023/05/22 04:56:07;;;;;;;5.43;2.90;;;;;;;14.26;100.00;95925.28;4975400;28;20208;-70
2023/05/22 04:58:36;;;;;;;7.63;2.70;;;;;;;14.33;100.00;95920.75;4974438;28;20223;-72
2023/05/22 05:01:03;;;;;;;7.10;3.13;;;;;;;14.25;100.00;95928.94;4974561;28;20322;-69
2023/05/22 05:03:29;;;;;;;4.13;2.20;;;;;;;14.31;100.00;95934.22;4974729;28;20206;-69
2023/05/22 05:05:56;;;;;;;6.18;3.05;;;;;;;14.45;100.00;95924.41;4974916;28;20207;-71
2023/05/22 05:08:22;;;;;;;6.20;4.30;;;;;;;14.59;100.00;95925.97;4974245;28;20303;-73
2023/05/22 05:10:49;;;;;;;7.10;3.80;;;;;;;14.64;100.00;95925.16;4974506;28;20286;-69
2023/05/22 05:13:17;;;;;;;7.13;3.97;;;;;;;14.90;100.00;95926.91;4977728;28;21082;-69
2023/05/22 05:15:43;;;;;;;6.40;2.83;;;;;;;14.87;100.00;95920.19;4974689;28;20589;-69
2023/05/22 05:18:11;;;;;;;7.40;3.53;;;;;;;15.02;100.00;95923.38;4974255;28;20215;-71
2023/05/22 05:20:37;;;;;;;6.47;4.20;;;;;;;15.14;100.00;95932.28;4974303;28;20208;-70
2023/05/22 05:23:04;;;;;;;7.43;3.22;;;;;;;15.13;100.00;95924.53;4975120;28;20204;-71
2023/05/22 05:25:30;;;;;;;6.70;3.22;;;;;;;15.10;100.00;95927.63;4977361;28;20572;-71
2023/05/22 05:27:57;;;;;;;5.20;2.75;;;;;;;15.23;100.00;95938.22;4978030;28;20227;-69
2023/05/22 05:30:24;;;;;;;4.95;3.42;;;;;;;15.30;100.00;95926.53;4977919;28;20235;-72
2023/05/22 05:32:51;;;;;;;6.68;3.25;;;;;;;15.33;100.00;95931.41;4977900;28;20215;-71
2023/05/22 05:35:17;;;;;;;6.45;3.05;;;;;;;15.33;100.00;95934.06;4978279;28;20230;-71
2023/05/22 05:37:44;;;;;;;9.10;4.45;;;;;;;15.31;100.00;95928.13;4977990;28;20255;-70
2023/05/22 05:40:11;;;;;;;13.45;4.20;;;;;;;15.54;100.00;95939.88;4977240;28;20226;-74
2023/05/22 05:42:38;;;;;;;6.45;2.92;;;;;;;15.46;100.00;95931.31;4978090;28;20276;-68
2023/05/22 05:45:05;;;;;;;9.48;4.25;;;;;;;15.71;100.00;95930.34;4978196;28;20203;-72
2023/05/22 05:47:33;;;;;;;9.95;3.38;;;;;;;15.87;100.00;95919.16;4977334;28;20309;-70
2023/05/22 05:50:00;;;;;;;6.63;3.53;;;;;;;15.88;100.00;95926.94;4977674;28;20204;-71
2023/05/22 05:52:31;;;;;;;7.60;4.47;;;;;;;15.94;100.00;95926.06;4977912;28;20204;-70
2023/05/22 05:54:59;;;;;;;11.23;3.13;;;;;;;16.01;100.00;95920.69;4977344;28;20341;-71
2023/05/22 05:57:26;;;;;;;8.95;4.15;;;;;;;16.10;100.00;95924.69;4981310;28;20276;-69
2023/05/22 05:59:52;;;;;;;8.80;5.00;;;;;;;16.15;100.00;95922.19;4977808;28;20204;-68
2023/05/22 06:02:19;;;;;;;5.75;3.25;;;;;;;16.24;100.00;95931.50;4977302;28;20222;-70
2023/05/22 06:04:47;;;;;;;8.27;3.45;;;;;;;16.44;100.00;95938.31;4977580;28;20704;-72
2023/05/22 06:07:13;;;;;;;7.55;3.53;;;;;;;16.38;100.00;95935.72;4977393;28;20223;-71
2023/05/22 06:09:40;;;;;;;7.22;3.42;;;;;;;16.59;100.00;95939.56;4977772;28;20261;-68
2023/05/22 06:12:11;;;;;;;9.57;4.18;;;;;;;16.45;100.00;95945.25;4977329;28;20342;-69
2023/05/22 06:14:38;;;;;;;6.45;3.42;;;;;;;16.68;100.00;95943.56;4977612;28;20223;-68
2023/05/22 06:17:05;;;;;;;8.68;3.83;;;;;;;16.64;100.00;95945.03;4976952;28;20280;-71
2023/05/22 06:19:32;;;;;;;4.95;3.28;;;;;;;16.71;100.00;95939.66;4976359;28;20215;-69
2023/05/22 06:21:59;;;;;;;6.82;3.38;;;;;;;16.93;100.00;95940.81;4977168;28;20203;-71
2023/05/22 06:24:26;;;;;;;6.80;3.95;;;;;;;17.04;100.00;95950.75;4977342;28;20670;-71
2023/05/22 06:29:12;;;;;;;8.02;3.85;;;;;;;17.38;100.00;95942.94;5053978;27;20625;-72
2023/05/22 06:31:39;;;;;;;7.05;3.97;;;;;;;17.49;99.92;95940.34;5054219;28;20215;-70
2023/05/22 06:34:05;;;;;;;8.65;4.50;;;;;;;17.54;99.56;95945.81;5053213;28;20204;-72
2023/05/22 06:36:33;;;;;;;10.48;5.15;;;;;;;17.57;100.00;95926.69;5052702;28;21064;-68
2023/05/22 06:38:59;;;;;;;5.78;3.70;;;;;;;17.59;98.06;95937.94;5033577;28;20217;-71
2023/05/22 06:41:26;;;;;;;9.50;4.40;;;;;;;17.62;98.55;95940.16;5033536;28;20219;-72
2023/05/22 06:43:52;;;;;;;7.47;4.05;;;;;;;17.63;100.00;95935.63;5033054;28;20208;-72
2023/05/22 06:46:20;;;;;;;7.47;3.80;;;;;;;17.90;98.64;95940.34;5033715;28;20212;-72
2023/05/22 06:48:47;;;;;;;7.07;3.92;;;;;;;17.89;98.51;95930.72;5033058;28;20221;-72
2023/05/22 06:51:13;;;;;;;8.98;4.53;;;;;;;18.01;97.83;95936.88;5032878;28;20205;-72
2023/05/22 06:53:40;;;;;;;7.05;3.33;;;;;;;18.06;98.74;95934.31;5032953;28;20212;-69
2023/05/22 06:56:07;;;;;;;6.30;3.42;;;;;;;18.09;96.74;95944.56;5033724;28;20224;-72
2023/05/22 06:58:33;;;;;;;8.57;4.18;;;;;;;18.15;98.94;95940.94;5032466;28;20233;-70
2023/05/22 07:01:00;;;;;;;6.15;3.10;;;;;;;18.20;96.07;95943.75;5032901;28;20241;-69
2023/05/22 07:03:28;;;;;;;10.48;4.30;;;;;;;18.29;95.62;95937.03;5033360;28;20201;-69
2023/05/22 07:05:56;;;;;;;8.68;4.82;;;;;;;18.42;98.15;95941.13;5032793;28;20209;-71
2023/05/22 07:08:22;;;;;;;6.68;3.13;;;;;;;18.34;96.17;95938.78;5032288;28;20884;-69
2023/05/22 07:10:50;;;;;;;6.55;3.65;;;;;;;18.60;93.51;95941.00;5033276;28;20505;-70
2023/05/22 07:13:16;;;;;;;10.27;5.03;;;;;;;18.66;95.37;95942.75;5031971;28;20236;-70
2023/05/22 07:15:43;;;;;;;8.88;4.10;;;;;;;18.79;93.57;95945.16;5032512;28;20216;-68
2023/05/22 07:18:09;;;;;;;10.10;3.22;;;;;;;18.95;92.82;95950.59;5032239;28;20229;-72
2023/05/22 07:20:38;;;;;;;7.25;3.80;;;;;;;19.04;91.81;95945.69;5032607;28;20212;-72
2023/05/22 07:23:04;;;;;;;6.10;3.30;;;;;;;19.20;91.13;95947.66;5032689;28;20213;-69
2023/05/22 07:25:31;;;;;;;7.10;3.53;;;;;;;19.21;90.18;95950.09;5032558;28;20292;-69
2023/05/22 07:27:58;;;;;;;8.25;3.92;;;;;;;19.36;91.66;95953.06;5031689;28;20225;-71
2023/05/22 07:30:24;;;;;;;9.40;4.35;;;;;;;19.49;91.43;95951.94;5032427;28;21298;-72
2023/05/22 07:32:51;;;;;;;11.25;4.60;;;;;;;19.60;88.45;95950.06;5031619;28;20205;-72
2023/05/22 07:35:17;;;;;;;6.43;3.80;;;;;;;19.80;89.95;95945.06;5031951;28;20209;-68
2023/05/22 07:37:45;;;;;;;9.50;4.18;;;;;;;19.76;86.82;95948.47;5031522;28;20229;-68
2023/05/22 07:40:12;;;;;;;11.95;4.28;;;;;;;19.77;87.57;95942.09;5020734;28;20205;-70
2023/05/22 07:42:38;;;;;;;7.60;4.38;;;;;;;19.86;87.44;95943.31;5018933;28;20206;-72
2023/05/22 07:45:06;;;;;;;8.25;4.13;;;;;;;19.93;88.47;95936.75;5018615;28;20224;-69
2023/05/22 07:47:32;;;;;;;7.47;3.58;;;;;;;20.05;88.05;95940.19;5017969;28;20708;-72
2023/05/22 07:50:02;;;;;;;8.60;4.43;;;;;;;20.05;87.27;95945.56;5017834;28;20232;-69
2023/05/22 07:52:30;;;;;;;7.78;3.90;;;;;;;20.26;90.50;95942.16;5019372;28;20210;-70
2023/05/22 07:54:58;;;;;;;7.93;3.65;;;;;;;20.38;90.60;95934.88;5018122;28;20224;-72
2023/05/22 07:57:24;;;;;;;11.32;4.15;;;;;;;20.65;85.70;95938.47;5017768;28;20230;-72
2023/05/22 07:59:51;;;;;;;13.25;5.18;;;;;;;20.50;86.24;95933.69;5018024;28;20704;-72
2023/05/22 08:02:17;;;;;;;5.63;3.50;;;;;;;20.55;87.72;95938.31;5018645;28;20206;-72
2023/05/22 08:04:44;;;;;;;5.35;3.55;;;;;;;20.73;82.62;95946.91;5018305;28;20217;-72
2023/05/22 08:07:11;;;;;;;10.27;4.55;;;;;;;20.75;84.15;95939.47;5018061;28;20257;-72
2023/05/22 08:09:38;;;;;;;10.73;4.43;;;;;;;20.82;84.40;95939.28;5017965;28;20675;-71
2023/05/22 08:12:07;;;;;;;10.25;5.35;;;;;;;21.07;83.96;95935.88;5018096;28;20210;-69
2023/05/22 08:14:33;;;;;;;9.43;3.97;;;;;;;20.90;84.05;95936.97;5018789;28;20237;-70
2023/05/22 08:17:00;;;;;;;9.07;4.65;;;;;;;20.86;82.27;95931.31;5018198;28;20352;-71
2023/05/22 08:19:26;;;;;;;8.02;3.88;;;;;;;20.95;81.58;95934.38;5017442;28;20632;-71
2023/05/22 08:21:56;;;;;;;5.68;3.25;;;;;;;21.02;85.54;95935.00;5017908;28;20205;-69
2023/05/22 08:24:27;;;;;;;11.57;5.05;;;;;;;21.24;83.24;95936.63;5018172;28;20209;-72
2023/05/22 08:26:53;;;;;;;10.77;4.70;;;;;;;21.37;81.25;95938.13;5017650;28;20357;-70
2023/05/22 08:29:21;;;;;;;9.23;4.88;;;;;;;21.64;80.55;95942.50;5016857;28;20214;-72
2023/05/22 08:31:47;;;;;;;11.40;4.25;;;;;;;21.60;79.77;95944.03;5017695;28;20686;-70
2023/05/22 08:34:14;;;;;;;9.68;4.45;;;;;;;21.39;83.85;95942.16;5016914;28;20210;-70
2023/05/22 08:36:41;;;;;;;8.05;4.03;;;;;;;21.49;79.87;95937.72;5017237;28;20212;-71
2023/05/22 08:39:07;;;;;;;7.03;3.80;;;;;;;21.51;82.61;95932.13;5017118;28;20233;-72
2023/05/22 08:41:34;;;;;;;8.20;4.55;;;;;;;21.75;77.57;95936.97;5017762;28;20213;-72
2023/05/22 08:44:00;;;;;;;11.82;4.95;;;;;;;21.74;76.70;95923.81;5017328;28;20210;-69
2023/05/22 08:46:29;;;;;;;11.35;5.70;;;;;;;21.98;76.37;95930.47;5017709;28;20209;-73
2023/05/22 08:48:57;;;;;;;8.70;3.97;;;;;;;21.99;77.18;95932.13;5017393;28;20226;-69
2023/05/22 08:51:30;;;;;;;10.70;4.85;;;;;;;22.08;74.61;95931.38;5017090;28;20217;-71
2023/05/22 08:53:56;;;;;;;11.07;4.35;;;;;;;22.19;78.28;95923.16;5017707;28;20209;-71
2023/05/22 08:56:23;;;;;;;11.13;4.70;;;;;;;22.39;78.96;95920.69;5017521;28;20206;-72
2023/05/22 08:58:51;;;;;;;9.60;4.32;;;;;;;22.48;76.07;95923.69;5016011;28;20607;-72
2023/05/22 09:01:18;;;;;;;8.73;4.72;;;;;;;22.55;74.58;95922.41;5017083;28;20220;-69
2023/05/22 09:03:48;;;;;;;9.10;4.35;;;;;;;22.67;74.87;95925.72;5017210;28;20205;-72
2023/05/22 09:06:15;;;;;;;7.50;4.05;;;;;;;22.76;74.62;95918.78;5017244;28;20729;-72
2023/05/22 09:08:42;;;;;;;12.38;5.35;;;;;;;22.59;73.95;95923.50;5016048;28;20578;-72
2023/05/22 09:11:09;;;;;;;12.00;4.40;;;;;;;22.84;71.98;95929.03;5017802;28;20931;-71
2023/05/22 09:13:39;;;;;;;6.18;3.60;;;;;;;23.03;70.54;95924.88;5017186;28;20212;-70
2023/05/22 09:16:08;;;;;;;8.63;4.95;;;;;;;23.16;69.95;95924.41;5017259;28;20217;-69
2023/05/22 09:18:36;;;;;;;7.93;3.70;;;;;;;22.93;72.17;95917.53;5017158;28;20783;-72
2023/05/22 09:21:05;;;;;;;12.05;4.00;;;;;;;23.23;71.64;95914.19;5016940;28;20202;-72
2023/05/22 09:23:31;;;;;;;10.73;4.47;;;;;;;23.21;69.48;95917.16;5017453;28;20202;-70
2023/05/22 09:25:59;;;;;;;7.78;3.58;;;;;;;23.45;67.48;95924.50;5017185;28;20303;-69
2023/05/22 09:28:27;;;;;;;10.82;5.18;;;;;;;23.53;68.71;95926.69;5016572;28;20244;-72
2023/05/22 09:30:55;;;;;;;6.63;4.32;;;;;;;23.67;66.75;95914.34;5016801;28;20228;-72
2023/05/22 09:33:23;;;;;;;7.47;4.22;;;;;;;23.62;65.40;95918.91;5017049;28;20216;-72
2023/05/22 09:35:52;;;;;;;9.95;4.55;;;;;;;23.95;66.02;95920.13;5016907;28;20202;-72
2023/05/22 09:38:22;;;;;;;9.10;4.78;;;;;;;24.11;68.05;95927.13;5015440;28;20230;-70
2023/05/22 09:40:53;;;;;;;9.23;4.55;;;;;;;24.19;65.08;95920.41;5016273;28;20197;-71
2023/05/22 09:43:21;;;;;;;9.35;4.10;;;;;;;24.18;65.68;95921.47;5017138;28;20212;-69
2023/05/22 09:45:47;;;;;;;10.75;4.90;;;;;;;24.22;62.50;95930.63;5016693;28;20684;-71
2023/05/22 09:48:17;;;;;;;10.57;4.35;;;;;;;24.35;63.34;95925.53;5016079;28;20795;-69
2023/05/22 09:50:47;;;;;;;10.02;4.50;;;;;;;24.33;66.76;95919.59;5016902;28;20213;-70
2023/05/22 09:53:16;;;;;;;10.57;4.50;;;;;;;24.48;65.49;95910.72;5016492;28;20249;-69
2023/05/22 09:55:46;;;;;;;8.90;3.63;;;;;;;24.71;64.98;95916.38;5017107;28;20205;-68
2023/05/22 09:58:16;;;;;;;9.60;4.25;;;;;;;24.58;64.73;95920.41;5016354;28;20313;-71
2023/05/22 10:00:43;;;;;;;12.23;4.13;;;;;;;24.79;63.38;95919.28;5016050;28;20202;-70
2023/05/22 10:03:11;;;;;;;8.73;4.28;;;;;;;24.77;62.73;95918.78;5016344;28;21013;-69
2023/05/22 10:05:43;;;;;;;6.28;3.45;;;;;;;25.03;57.91;95920.31;5017532;28;20229;-71
2023/05/22 10:08:13;;;;;;;7.85;4.15;;;;;;;24.75;58.22;95915.53;5015869;28;20225;-70
2023/05/22 10:10:42;;;;;;;10.00;4.15;;;;;;;24.85;60.34;95915.53;5016713;28;20217;-69
2023/05/22 10:13:10;;;;;;;10.13;4.60;;;;;;;24.97;60.46;95912.53;5017178;28;20202;-72
2023/05/22 10:15:38;;;;;;;6.43;3.30;;;;;;;25.08;57.44;95914.94;5016479;28;20689;-71
2023/05/22 10:18:05;;;;;;;7.00;3.60;;;;;;;25.01;59.58;95917.09;5015789;28;20225;-72
2023/05/22 10:20:31;;;;;;;8.00;3.88;;;;;;;25.17;56.28;95924.09;5017136;28;20642;-72
2023/05/22 10:22:59;;;;;;;8.25;3.22;;;;;;;25.28;58.33;95918.38;5017046;28;20212;-69
2023/05/22 10:25:26;;;;;;;9.48;3.88;;;;;;;25.30;57.25;95924.31;5016734;28;20201;-71
2023/05/22 10:27:54;;;;;;;6.82;3.53;;;;;;;25.45;54.76;95920.75;5015204;28;20233;-69
2023/05/22 10:30:29;;;;;;;8.75;3.15;;;;;;;25.44;53.67;95919.13;5016419;28;20202;-70
2023/05/22 10:33:00;;;;;;;8.10;3.97;;;;;;;25.50;53.87;95910.75;5016732;28;20201;-72
2023/05/22 10:35:32;;;;;;;7.03;3.10;;;;;;;25.53;57.75;95910.16;5016673;28;20210;-68
2023/05/22 10:38:14;;;;;;;7.03;3.72;;;;;;;25.60;53.09;95913.38;5015471;28;20233;-69
2023/05/22 10:40:41;;;;;;;6.05;3.08;;;;;;;25.70;54.06;95913.38;5013427;28;20201;-72
2023/05/22 10:43:08;;;;;;;8.38;3.33;;;;;;;25.88;54.40;95902.72;5015033;28;20206;-73
2023/05/22 10:45:36;;;;;;;9.43;3.75;;;;;;;25.91;52.03;95894.06;5015524;28;20202;-69
2023/05/22 10:48:04;;;;;;;7.07;3.63;;;;;;;25.99;55.14;95896.19;5013992;28;20635;-71
2023/05/22 10:50:31;;;;;;;7.55;3.30;;;;;;;26.04;56.79;95898.03;5015099;28;20224;-72
2023/05/22 10:53:19;;;;;;;7.38;3.55;;;;;;;26.63;56.05;95888.66;5016304;28;20292;-72
2023/05/22 10:55:50;;;;;;;7.53;3.67;;;;;;;26.71;54.69;95882.63;5012007;28;20237;-71
2023/05/22 10:58:16;;;;;;;6.18;3.15;;;;;;;26.75;55.65;95880.97;5013249;28;20734;-69
2023/05/22 11:00:44;;;;;;;6.35;3.90;;;;;;;27.31;56.25;95890.91;5014578;28;20262;-72
2023/05/22 11:03:11;;;;;;;5.25;3.35;;;;;;;27.20;56.07;95884.00;5013041;28;20202;-69
2023/05/22 11:05:39;;;;;;;5.65;3.03;;;;;;;27.31;56.93;95878.19;5014753;28;20237;-69
2023/05/22 11:08:10;;;;;;;9.02;3.53;;;;;;;27.42;54.14;95879.69;5014195;28;20221;-72
2023/05/22 11:10:53;;;;;;;6.80;3.53;;;;;;;27.57;54.74;95876.81;5014801;28;20670;-72
2023/05/22 11:13:20;;;;;;;8.07;3.25;;;;;;;27.22;54.98;95879.13;5014249;28;20201;-69
2023/05/22 11:15:48;;;;;;;6.22;3.40;;;;;;;27.38;53.29;95877.81;5018770;28;20217;-72
2023/05/22 11:18:16;;;;;;;6.35;2.90;;;;;;;27.23;56.16;95873.41;5018717;28;20236;-72
2023/05/22 11:20:43;;;;;;;5.40;2.90;;;;;;;27.10;52.46;95871.41;5018521;28;20213;-72
2023/05/22 11:23:11;;;;;;;6.20;3.03;;;;;;;27.13;48.23;95870.81;5018699;28;20769;-72
2023/05/22 11:25:39;;;;;;;5.28;2.92;;;;;;;27.33;47.09;95865.16;5018926;28;20212;-69
2023/05/22 11:28:09;;;;;;;6.72;2.58;;;;;;;27.45;48.14;95876.38;5016983;28;20241;-69
2023/05/22 11:30:36;;;;;;;5.70;3.22;;;;;;;27.53;48.54;95858.69;5018005;28;20768;-71
2023/05/22 11:33:05;;;;;;;6.43;3.25;;;;;;;27.52;50.60;95863.31;5018900;28;20236;-72